sensor_id;sensor_type;location;lat;lon;timestamp;P1;durP1;ratioP1;P2;durP2;ratioP2
16242;SDS011;11719;51.052;6.982;2024-02-21T00:00:58;5.50;;;2.90;;
16242;SDS011;11719;51.052;6.982;2024-02-21T00:03:24;12.53;;;3.33;;
16242;SDS011;11719;51.052;6.982;2024-02-21T00:05:50;5.80;;;2.80;;
16242;SDS011;11719;51.052;6.982;2024-02-21T00:08:16;6.10;;;2.57;;
16242;SDS011;11719;51.052;6.982;2024-02-21T00:10:41;9.93;;;2.57;;
16242;SDS011;11719;51.052;6.982;2024-02-21T00:13:07;9.53;;;3.43;;
16242;SDS011;11719;51.052;6.982;2024-02-21T00:15:33;4.67;;;2.57;;
16242;SDS011;11719;51.052;6.982;2024-02-21T00:17:59;9.13;;;3.03;;
16242;SDS011;11719;51.052;6.982;2024-02-21T00:20:28;11.97;;;3.87;;
16242;SDS011;11719;51.052;6.982;2024-02-21T00:22:53;8.20;;;3.23;;
16242;SDS011;11719;51.052;6.982;2024-02-21T00:25:20;7.43;;;2.87;;
16242;SDS011;11719;51.052;6.982;2024-02-21T00:27:45;5.63;;;2.57;;
16242;SDS011;11719;51.052;6.982;2024-02-21T00:30:11;10.10;;;3.03;;
16242;SDS011;11719;51.052;6.982;2024-02-21T00:32:37;6.20;;;3.33;;
16242;SDS011;11719;51.052;6.982;2024-02-21T00:35:03;9.27;;;3.07;;
16242;SDS011;11719;51.052;6.982;2024-02-21T00:37:29;8.10;;;2.20;;
16242;SDS011;11719;51.052;6.982;2024-02-21T00:39:56;5.37;;;2.87;;
16242;SDS011;11719;51.052;6.982;2024-02-21T00:42:22;7.37;;;2.97;;
16242;SDS011;11719;51.052;6.982;2024-02-21T00:44:48;8.00;;;3.03;;
16242;SDS011;11719;51.052;6.982;2024-02-21T00:47:13;4.83;;;2.73;;
16242;SDS011;11719;51.052;6.982;2024-02-21T00:49:39;7.20;;;3.03;;
16242;SDS011;11719;51.052;6.982;2024-02-21T00:52:05;12.40;;;3.27;;
16242;SDS011;11719;51.052;6.982;2024-02-21T00:54:31;5.67;;;2.60;;
16242;SDS011;11719;51.052;6.982;2024-02-21T00:56:57;8.83;;;3.33;;
16242;SDS011;11719;51.052;6.982;2024-02-21T00:59:23;8.60;;;3.23;;
16242;SDS011;11719;51.052;6.982;2024-02-21T01:01:48;5.53;;;3.10;;
16242;SDS011;11719;51.052;6.982;2024-02-21T01:04:14;5.03;;;2.90;;
16242;SDS011;11719;51.052;6.982;2024-02-21T01:06:40;8.90;;;3.20;;
16242;SDS011;11719;51.052;6.982;2024-02-21T01:09:08;7.60;;;3.33;;
16242;SDS011;11719;51.052;6.982;2024-02-21T01:11:35;7.73;;;3.30;;
16242;SDS011;11719;51.052;6.982;2024-02-21T01:14:02;8.60;;;3.27;;
16242;SDS011;11719;51.052;6.982;2024-02-21T01:16:27;14.10;;;3.43;;
16242;SDS011;11719;51.052;6.982;2024-02-21T01:18:54;6.90;;;3.40;;
16242;SDS011;11719;51.052;6.982;2024-02-21T01:21:20;9.00;;;2.90;;
16242;SDS011;11719;51.052;6.982;2024-02-21T01:23:46;9.07;;;3.37;;
16242;SDS011;11719;51.052;6.982;2024-02-21T01:26:12;9.40;;;3.53;;
16242;SDS011;11719;51.052;6.982;2024-02-21T01:28:40;8.90;;;2.80;;
16242;SDS011;11719;51.052;6.982;2024-02-21T01:31:06;12.30;;;2.67;;
16242;SDS011;11719;51.052;6.982;2024-02-21T01:33:32;7.20;;;2.87;;
16242;SDS011;11719;51.052;6.982;2024-02-21T01:36:02;9.77;;;3.43;;
16242;SDS011;11719;51.052;6.982;2024-02-21T01:38:29;7.03;;;2.67;;
16242;SDS011;11719;51.052;6.982;2024-02-21T01:40:55;6.93;;;2.87;;
16242;SDS011;11719;51.052;6.982;2024-02-21T01:43:21;8.80;;;2.93;;
16242;SDS011;11719;51.052;6.982;2024-02-21T01:45:52;10.53;;;3.53;;
16242;SDS011;11719;51.052;6.982;2024-02-21T01:48:21;7.80;;;3.00;;
16242;SDS011;11719;51.052;6.982;2024-02-21T01:50:51;9.97;;;3.57;;
16242;SDS011;11719;51.052;6.982;2024-02-21T01:53:27;8.67;;;3.07;;
16242;SDS011;11719;51.052;6.982;2024-02-21T01:55:58;7.97;;;3.43;;
16242;SDS011;11719;51.052;6.982;2024-02-21T01:58:24;7.73;;;3.13;;
16242;SDS011;11719;51.052;6.982;2024-02-21T02:00:50;5.67;;;3.23;;
16242;SDS011;11719;51.052;6.982;2024-02-21T02:03:16;9.93;;;3.20;;
16242;SDS011;11719;51.052;6.982;2024-02-21T02:05:46;11.37;;;3.77;;
16242;SDS011;11719;51.052;6.982;2024-02-21T02:08:13;11.63;;;4.00;;
16242;SDS011;11719;51.052;6.982;2024-02-21T02:10:44;7.57;;;3.40;;
16242;SDS011;11719;51.052;6.982;2024-02-21T02:13:10;6.33;;;2.83;;
16242;SDS011;11719;51.052;6.982;2024-02-21T02:15:46;7.50;;;3.23;;
16242;SDS011;11719;51.052;6.982;2024-02-21T02:18:14;10.33;;;3.17;;
16242;SDS011;11719;51.052;6.982;2024-02-21T02:20:42;9.33;;;3.37;;
16242;SDS011;11719;51.052;6.982;2024-02-21T02:23:25;10.40;;;3.43;;
16242;SDS011;11719;51.052;6.982;2024-02-21T02:25:53;7.60;;;2.70;;
16242;SDS011;11719;51.052;6.982;2024-02-21T02:28:19;11.60;;;3.47;;
16242;SDS011;11719;51.052;6.982;2024-02-21T02:30:45;8.83;;;3.50;;
16242;SDS011;11719;51.052;6.982;2024-02-21T02:33:12;8.23;;;2.97;;
16242;SDS011;11719;51.052;6.982;2024-02-21T02:35:38;8.07;;;3.40;;
16242;SDS011;11719;51.052;6.982;2024-02-21T02:38:04;9.70;;;3.47;;
16242;SDS011;11719;51.052;6.982;2024-02-21T02:40:31;11.30;;;3.00;;
16242;SDS011;11719;51.052;6.982;2024-02-21T02:42:58;8.37;;;2.90;;
16242;SDS011;11719;51.052;6.982;2024-02-21T02:45:25;7.63;;;2.97;;
16242;SDS011;11719;51.052;6.982;2024-02-21T02:47:54;5.37;;;3.20;;
16242;SDS011;11719;51.052;6.982;2024-02-21T02:50:22;7.23;;;3.20;;
16242;SDS011;11719;51.052;6.982;2024-02-21T02:52:49;10.03;;;3.30;;
16242;SDS011;11719;51.052;6.982;2024-02-21T02:55:15;8.17;;;3.67;;
16242;SDS011;11719;51.052;6.982;2024-02-21T02:57:41;5.87;;;2.93;;
16242;SDS011;11719;51.052;6.982;2024-02-21T03:00:08;7.33;;;3.63;;
16242;SDS011;11719;51.052;6.982;2024-02-21T03:02:35;10.23;;;3.33;;
16242;SDS011;11719;51.052;6.982;2024-02-21T03:05:03;11.93;;;3.77;;
16242;SDS011;11719;51.052;6.982;2024-02-21T03:07:39;14.33;;;3.80;;
16242;SDS011;11719;51.052;6.982;2024-02-21T03:10:05;8.13;;;3.20;;
16242;SDS011;11719;51.052;6.982;2024-02-21T03:12:32;8.27;;;3.83;;
16242;SDS011;11719;51.052;6.982;2024-02-21T03:14:57;14.53;;;4.07;;
16242;SDS011;11719;51.052;6.982;2024-02-21T03:17:24;5.10;;;2.87;;
16242;SDS011;11719;51.052;6.982;2024-02-21T03:19:52;11.60;;;4.07;;
16242;SDS011;11719;51.052;6.982;2024-02-21T03:22:18;9.77;;;3.03;;
16242;SDS011;11719;51.052;6.982;2024-02-21T03:24:44;10.07;;;2.90;;
16242;SDS011;11719;51.052;6.982;2024-02-21T03:27:10;8.00;;;2.97;;
16242;SDS011;11719;51.052;6.982;2024-02-21T03:29:36;8.87;;;2.53;;
16242;SDS011;11719;51.052;6.982;2024-02-21T03:32:02;7.67;;;3.33;;
16242;SDS011;11719;51.052;6.982;2024-02-21T03:34:28;11.03;;;2.63;;
16242;SDS011;11719;51.052;6.982;2024-02-21T03:36:54;8.23;;;2.53;;
16242;SDS011;11719;51.052;6.982;2024-02-21T03:39:19;5.80;;;2.40;;
16242;SDS011;11719;51.052;6.982;2024-02-21T03:41:46;5.80;;;2.40;;
16242;SDS011;11719;51.052;6.982;2024-02-21T03:44:12;8.00;;;2.67;;
16242;SDS011;11719;51.052;6.982;2024-02-21T03:46:38;8.73;;;2.70;;
16242;SDS011;11719;51.052;6.982;2024-02-21T03:49:04;6.90;;;2.40;;
16242;SDS011;11719;51.052;6.982;2024-02-21T03:51:29;8.50;;;2.50;;
16242;SDS011;11719;51.052;6.982;2024-02-21T03:53:56;8.93;;;3.07;;
16242;SDS011;11719;51.052;6.982;2024-02-21T03:56:21;2.90;;;2.23;;
16242;SDS011;11719;51.052;6.982;2024-02-21T03:58:47;8.37;;;2.67;;
16242;SDS011;11719;51.052;6.982;2024-02-21T04:01:15;6.10;;;2.53;;
16242;SDS011;11719;51.052;6.982;2024-02-21T04:03:41;7.00;;;2.40;;
16242;SDS011;11719;51.052;6.982;2024-02-21T04:06:09;7.20;;;2.67;;
16242;SDS011;11719;51.052;6.982;2024-02-21T04:08:34;4.83;;;2.17;;
16242;SDS011;11719;51.052;6.982;2024-02-21T04:11:00;5.47;;;3.17;;
16242;SDS011;11719;51.052;6.982;2024-02-21T04:13:26;3.80;;;1.93;;
16242;SDS011;11719;51.052;6.982;2024-02-21T04:15:52;5.13;;;1.97;;
16242;SDS011;11719;51.052;6.982;2024-02-21T04:18:18;6.23;;;2.50;;
16242;SDS011;11719;51.052;6.982;2024-02-21T04:20:44;6.83;;;2.10;;
16242;SDS011;11719;51.052;6.982;2024-02-21T04:23:10;5.97;;;2.53;;
16242;SDS011;11719;51.052;6.982;2024-02-21T04:25:36;6.30;;;2.27;;
16242;SDS011;11719;51.052;6.982;2024-02-21T04:28:02;6.40;;;2.23;;
16242;SDS011;11719;51.052;6.982;2024-02-21T04:30:28;6.77;;;2.87;;
16242;SDS011;11719;51.052;6.982;2024-02-21T04:32:53;4.90;;;2.43;;
16242;SDS011;11719;51.052;6.982;2024-02-21T04:35:19;8.03;;;2.43;;
16242;SDS011;11719;51.052;6.982;2024-02-21T04:37:45;6.07;;;1.90;;
16242;SDS011;11719;51.052;6.982;2024-02-21T04:40:11;8.90;;;2.73;;
16242;SDS011;11719;51.052;6.982;2024-02-21T04:42:38;7.07;;;2.40;;
16242;SDS011;11719;51.052;6.982;2024-02-21T04:45:04;4.20;;;1.73;;
16242;SDS011;11719;51.052;6.982;2024-02-21T04:47:30;6.93;;;2.43;;
16242;SDS011;11719;51.052;6.982;2024-02-21T04:49:56;3.17;;;2.10;;
16242;SDS011;11719;51.052;6.982;2024-02-21T04:52:22;5.63;;;2.20;;
16242;SDS011;11719;51.052;6.982;2024-02-21T04:54:47;9.40;;;2.70;;
16242;SDS011;11719;51.052;6.982;2024-02-21T04:57:13;6.77;;;1.77;;
16242;SDS011;11719;51.052;6.982;2024-02-21T04:59:42;2.93;;;1.37;;
16242;SDS011;11719;51.052;6.982;2024-02-21T05:02:14;6.53;;;2.50;;
16242;SDS011;11719;51.052;6.982;2024-02-21T05:04:40;7.73;;;2.30;;
16242;SDS011;11719;51.052;6.982;2024-02-21T05:07:07;4.13;;;2.13;;
16242;SDS011;11719;51.052;6.982;2024-02-21T05:09:33;5.60;;;2.60;;
16242;SDS011;11719;51.052;6.982;2024-02-21T05:11:59;8.90;;;3.13;;
16242;SDS011;11719;51.052;6.982;2024-02-21T05:14:25;5.30;;;1.90;;
16242;SDS011;11719;51.052;6.982;2024-02-21T05:16:54;7.47;;;2.10;;
16242;SDS011;11719;51.052;6.982;2024-02-21T05:19:20;6.27;;;2.30;;
16242;SDS011;11719;51.052;6.982;2024-02-21T05:21:46;6.50;;;2.13;;
16242;SDS011;11719;51.052;6.982;2024-02-21T05:24:14;5.53;;;1.90;;
16242;SDS011;11719;51.052;6.982;2024-02-21T05:26:40;5.77;;;2.30;;
16242;SDS011;11719;51.052;6.982;2024-02-21T05:29:05;8.53;;;2.07;;
16242;SDS011;11719;51.052;6.982;2024-02-21T05:34:16;3.67;;;2.10;;
16242;SDS011;11719;51.052;6.982;2024-02-21T05:36:45;8.50;;;2.67;;
16242;SDS011;11719;51.052;6.982;2024-02-21T05:39:17;6.27;;;2.50;;
16242;SDS011;11719;51.052;6.982;2024-02-21T05:41:43;5.90;;;2.67;;
16242;SDS011;11719;51.052;6.982;2024-02-21T05:44:10;7.27;;;3.13;;
16242;SDS011;11719;51.052;6.982;2024-02-21T05:46:36;4.10;;;2.23;;
16242;SDS011;11719;51.052;6.982;2024-02-21T05:49:02;8.83;;;2.43;;
16242;SDS011;11719;51.052;6.982;2024-02-21T05:51:31;6.40;;;2.23;;
16242;SDS011;11719;51.052;6.982;2024-02-21T05:54:00;7.90;;;2.57;;
16242;SDS011;11719;51.052;6.982;2024-02-21T05:56:27;7.37;;;2.30;;
16242;SDS011;11719;51.052;6.982;2024-02-21T05:58:53;7.93;;;2.53;;
16242;SDS011;11719;51.052;6.982;2024-02-21T06:01:19;7.33;;;2.77;;
16242;SDS011;11719;51.052;6.982;2024-02-21T06:03:46;6.43;;;2.27;;
16242;SDS011;11719;51.052;6.982;2024-02-21T06:06:12;5.77;;;2.53;;
16242;SDS011;11719;51.052;6.982;2024-02-21T06:08:39;5.97;;;2.23;;
16242;SDS011;11719;51.052;6.982;2024-02-21T06:11:09;5.10;;;2.57;;
16242;SDS011;11719;51.052;6.982;2024-02-21T06:13:37;5.97;;;2.30;;
16242;SDS011;11719;51.052;6.982;2024-02-21T06:16:07;6.20;;;2.57;;
16242;SDS011;11719;51.052;6.982;2024-02-21T06:18:34;4.80;;;2.40;;
16242;SDS011;11719;51.052;6.982;2024-02-21T06:21:02;8.10;;;2.73;;
16242;SDS011;11719;51.052;6.982;2024-02-21T06:23:29;8.97;;;3.00;;
16242;SDS011;11719;51.052;6.982;2024-02-21T06:25:55;5.27;;;2.73;;
16242;SDS011;11719;51.052;6.982;2024-02-21T06:28:26;7.30;;;2.37;;
16242;SDS011;11719;51.052;6.982;2024-02-21T06:30:52;6.50;;;2.20;;
16242;SDS011;11719;51.052;6.982;2024-02-21T06:33:17;4.50;;;2.30;;
16242;SDS011;11719;51.052;6.982;2024-02-21T06:35:47;5.13;;;1.90;;
16242;SDS011;11719;51.052;6.982;2024-02-21T06:38:13;7.43;;;2.60;;
16242;SDS011;11719;51.052;6.982;2024-02-21T06:40:42;4.73;;;2.20;;
16242;SDS011;11719;51.052;6.982;2024-02-21T06:43:16;5.20;;;2.30;;
16242;SDS011;11719;51.052;6.982;2024-02-21T06:45:44;3.57;;;2.13;;
16242;SDS011;11719;51.052;6.982;2024-02-21T06:48:15;3.60;;;1.53;;
16242;SDS011;11719;51.052;6.982;2024-02-21T06:50:43;7.80;;;2.00;;
16242;SDS011;11719;51.052;6.982;2024-02-21T06:53:09;8.93;;;2.67;;
16242;SDS011;11719;51.052;6.982;2024-02-21T06:55:35;2.70;;;1.57;;
16242;SDS011;11719;51.052;6.982;2024-02-21T06:58:00;5.70;;;1.80;;
16242;SDS011;11719;51.052;6.982;2024-02-21T07:00:27;2.73;;;1.83;;
16242;SDS011;11719;51.052;6.982;2024-02-21T07:02:54;5.03;;;2.03;;
16242;SDS011;11719;51.052;6.982;2024-02-21T07:05:20;4.00;;;2.20;;
16242;SDS011;11719;51.052;6.982;2024-02-21T07:07:45;6.87;;;2.77;;
16242;SDS011;11719;51.052;6.982;2024-02-21T07:10:11;4.67;;;2.43;;
16242;SDS011;11719;51.052;6.982;2024-02-21T07:12:37;5.13;;;2.00;;
16242;SDS011;11719;51.052;6.982;2024-02-21T07:15:07;4.63;;;2.27;;
16242;SDS011;11719;51.052;6.982;2024-02-21T07:17:32;4.77;;;2.80;;
16242;SDS011;11719;51.052;6.982;2024-02-21T07:19:58;9.37;;;2.83;;
16242;SDS011;11719;51.052;6.982;2024-02-21T07:22:24;6.43;;;2.87;;
16242;SDS011;11719;51.052;6.982;2024-02-21T07:24:53;7.53;;;2.63;;
16242;SDS011;11719;51.052;6.982;2024-02-21T07:27:19;6.90;;;2.77;;
16242;SDS011;11719;51.052;6.982;2024-02-21T07:29:44;7.60;;;2.77;;
16242;SDS011;11719;51.052;6.982;2024-02-21T07:32:12;6.63;;;3.07;;
16242;SDS011;11719;51.052;6.982;2024-02-21T07:34:38;6.03;;;2.50;;
16242;SDS011;11719;51.052;6.982;2024-02-21T07:37:04;4.93;;;3.40;;
16242;SDS011;11719;51.052;6.982;2024-02-21T07:39:30;6.40;;;2.70;;
16242;SDS011;11719;51.052;6.982;2024-02-21T07:42:01;9.63;;;2.90;;
16242;SDS011;11719;51.052;6.982;2024-02-21T07:44:27;8.07;;;2.67;;
16242;SDS011;11719;51.052;6.982;2024-02-21T07:46:55;11.90;;;3.60;;
16242;SDS011;11719;51.052;6.982;2024-02-21T07:49:21;6.93;;;3.23;;
16242;SDS011;11719;51.052;6.982;2024-02-21T07:51:47;7.30;;;3.03;;
16242;SDS011;11719;51.052;6.982;2024-02-21T07:54:12;6.27;;;2.47;;
16242;SDS011;11719;51.052;6.982;2024-02-21T07:56:41;6.83;;;2.80;;
16242;SDS011;11719;51.052;6.982;2024-02-21T07:59:07;4.37;;;1.60;;
16242;SDS011;11719;51.052;6.982;2024-02-21T08:01:33;6.57;;;2.20;;
16242;SDS011;11719;51.052;6.982;2024-02-21T08:03:58;5.80;;;2.40;;
16242;SDS011;11719;51.052;6.982;2024-02-21T08:06:24;5.30;;;2.43;;
16242;SDS011;11719;51.052;6.982;2024-02-21T08:08:50;2.70;;;1.50;;
16242;SDS011;11719;51.052;6.982;2024-02-21T08:11:16;5.80;;;2.13;;
16242;SDS011;11719;51.052;6.982;2024-02-21T08:13:42;5.27;;;2.00;;
16242;SDS011;11719;51.052;6.982;2024-02-21T08:16:07;5.60;;;1.90;;
16242;SDS011;11719;51.052;6.982;2024-02-21T08:18:36;3.53;;;1.87;;
16242;SDS011;11719;51.052;6.982;2024-02-21T08:21:03;2.87;;;1.30;;
16242;SDS011;11719;51.052;6.982;2024-02-21T08:23:29;7.33;;;1.77;;
16242;SDS011;11719;51.052;6.982;2024-02-21T08:25:55;3.97;;;1.60;;
16242;SDS011;11719;51.052;6.982;2024-02-21T08:28:21;2.53;;;1.63;;
16242;SDS011;11719;51.052;6.982;2024-02-21T08:30:47;4.13;;;1.87;;
16242;SDS011;11719;51.052;6.982;2024-02-21T08:33:22;6.80;;;1.93;;
16242;SDS011;11719;51.052;6.982;2024-02-21T08:35:50;4.77;;;1.77;;
16242;SDS011;11719;51.052;6.982;2024-02-21T08:38:17;5.47;;;1.77;;
16242;SDS011;11719;51.052;6.982;2024-02-21T08:40:43;1.70;;;1.30;;
16242;SDS011;11719;51.052;6.982;2024-02-21T08:43:09;4.97;;;2.03;;
16242;SDS011;11719;51.052;6.982;2024-02-21T08:45:35;2.60;;;1.10;;
16242;SDS011;11719;51.052;6.982;2024-02-21T08:48:01;4.97;;;2.43;;
16242;SDS011;11719;51.052;6.982;2024-02-21T08:50:27;2.80;;;1.80;;
16242;SDS011;11719;51.052;6.982;2024-02-21T08:52:56;3.93;;;1.70;;
16242;SDS011;11719;51.052;6.982;2024-02-21T08:55:22;4.03;;;1.77;;
16242;SDS011;11719;51.052;6.982;2024-02-21T08:57:52;3.87;;;1.80;;
16242;SDS011;11719;51.052;6.982;2024-02-21T09:00:18;3.77;;;1.87;;
16242;SDS011;11719;51.052;6.982;2024-02-21T09:02:52;6.07;;;1.63;;
16242;SDS011;11719;51.052;6.982;2024-02-21T09:05:21;6.97;;;2.20;;
16242;SDS011;11719;51.052;6.982;2024-02-21T09:07:49;5.33;;;1.47;;
16242;SDS011;11719;51.052;6.982;2024-02-21T09:10:15;2.50;;;1.53;;
16242;SDS011;11719;51.052;6.982;2024-02-21T09:12:41;8.13;;;2.30;;
16242;SDS011;11719;51.052;6.982;2024-02-21T09:15:08;4.87;;;1.67;;
16242;SDS011;11719;51.052;6.982;2024-02-21T09:17:38;6.40;;;2.20;;
16242;SDS011;11719;51.052;6.982;2024-02-21T09:20:07;5.53;;;2.13;;
16242;SDS011;11719;51.052;6.982;2024-02-21T09:22:37;7.70;;;2.50;;
16242;SDS011;11719;51.052;6.982;2024-02-21T09:25:04;7.37;;;1.80;;
16242;SDS011;11719;51.052;6.982;2024-02-21T09:27:32;4.43;;;2.07;;
16242;SDS011;11719;51.052;6.982;2024-02-21T09:29:58;5.73;;;2.00;;
16242;SDS011;11719;51.052;6.982;2024-02-21T09:32:24;4.07;;;1.80;;
16242;SDS011;11719;51.052;6.982;2024-02-21T09:34:50;8.83;;;2.30;;
16242;SDS011;11719;51.052;6.982;2024-02-21T09:37:16;4.33;;;2.23;;
16242;SDS011;11719;51.052;6.982;2024-02-21T09:39:44;6.73;;;2.00;;
16242;SDS011;11719;51.052;6.982;2024-02-21T09:42:12;6.07;;;1.80;;
16242;SDS011;11719;51.052;6.982;2024-02-21T09:44:40;7.53;;;2.07;;
16242;SDS011;11719;51.052;6.982;2024-02-21T09:47:12;8.20;;;2.17;;
16242;SDS011;11719;51.052;6.982;2024-02-21T09:49:44;7.60;;;2.20;;
16242;SDS011;11719;51.052;6.982;2024-02-21T09:52:11;6.17;;;1.93;;
16242;SDS011;11719;51.052;6.982;2024-02-21T09:54:39;7.03;;;1.83;;
16242;SDS011;11719;51.052;6.982;2024-02-21T09:57:09;2.83;;;1.50;;
16242;SDS011;11719;51.052;6.982;2024-02-21T09:59:35;3.00;;;1.30;;
16242;SDS011;11719;51.052;6.982;2024-02-21T10:02:02;2.83;;;1.67;;
16242;SDS011;11719;51.052;6.982;2024-02-21T10:04:29;4.87;;;1.43;;
16242;SDS011;11719;51.052;6.982;2024-02-21T10:06:57;6.63;;;2.07;;
16242;SDS011;11719;51.052;6.982;2024-02-21T10:09:26;6.13;;;2.30;;
16242;SDS011;11719;51.052;6.982;2024-02-21T10:11:55;3.57;;;1.70;;
16242;SDS011;11719;51.052;6.982;2024-02-21T10:14:32;2.97;;;1.60;;
16242;SDS011;11719;51.052;6.982;2024-02-21T10:16:58;3.60;;;1.60;;
16242;SDS011;11719;51.052;6.982;2024-02-21T10:19:24;3.03;;;1.90;;
16242;SDS011;11719;51.052;6.982;2024-02-21T10:22:03;4.27;;;1.33;;
16242;SDS011;11719;51.052;6.982;2024-02-21T10:24:37;2.37;;;1.53;;
16242;SDS011;11719;51.052;6.982;2024-02-21T10:27:06;5.57;;;1.93;;
16242;SDS011;11719;51.052;6.982;2024-02-21T10:29:37;7.83;;;1.70;;
16242;SDS011;11719;51.052;6.982;2024-02-21T10:32:10;7.60;;;1.90;;
16242;SDS011;11719;51.052;6.982;2024-02-21T10:34:38;2.47;;;1.80;;
16242;SDS011;11719;51.052;6.982;2024-02-21T10:37:06;3.83;;;1.63;;
16242;SDS011;11719;51.052;6.982;2024-02-21T10:39:37;4.70;;;2.13;;
16242;SDS011;11719;51.052;6.982;2024-02-21T10:42:04;2.77;;;1.30;;
16242;SDS011;11719;51.052;6.982;2024-02-21T10:44:31;3.43;;;1.43;;
16242;SDS011;11719;51.052;6.982;2024-02-21T10:46:59;2.80;;;1.30;;
16242;SDS011;11719;51.052;6.982;2024-02-21T10:49:39;5.27;;;1.60;;
16242;SDS011;11719;51.052;6.982;2024-02-21T10:52:13;2.63;;;1.60;;
16242;SDS011;11719;51.052;6.982;2024-02-21T10:54:44;3.73;;;1.50;;
16242;SDS011;11719;51.052;6.982;2024-02-21T10:57:18;2.67;;;1.53;;
16242;SDS011;11719;51.052;6.982;2024-02-21T10:59:47;5.77;;;1.70;;
16242;SDS011;11719;51.052;6.982;2024-02-21T11:02:14;5.23;;;1.67;;
16242;SDS011;11719;51.052;6.982;2024-02-21T11:04:40;3.20;;;1.37;;
16242;SDS011;11719;51.052;6.982;2024-02-21T11:07:08;5.00;;;1.90;;
16242;SDS011;11719;51.052;6.982;2024-02-21T11:09:37;4.70;;;2.00;;
16242;SDS011;11719;51.052;6.982;2024-02-21T11:12:06;4.00;;;2.13;;
16242;SDS011;11719;51.052;6.982;2024-02-21T11:14:33;5.03;;;1.83;;
16242;SDS011;11719;51.052;6.982;2024-02-21T11:17:13;3.37;;;1.63;;
16242;SDS011;11719;51.052;6.982;2024-02-21T11:19:43;4.80;;;1.63;;
16242;SDS011;11719;51.052;6.982;2024-02-21T11:22:16;5.47;;;1.17;;
16242;SDS011;11719;51.052;6.982;2024-02-21T11:24:43;3.33;;;1.80;;
16242;SDS011;11719;51.052;6.982;2024-02-21T11:29:46;4.27;;;1.53;;
16242;SDS011;11719;51.052;6.982;2024-02-21T11:32:16;4.17;;;0.93;;
16242;SDS011;11719;51.052;6.982;2024-02-21T11:34:53;3.57;;;1.20;;
16242;SDS011;11719;51.052;6.982;2024-02-21T11:37:33;5.53;;;1.73;;
16242;SDS011;11719;51.052;6.982;2024-02-21T11:40:03;3.07;;;1.80;;
16242;SDS011;11719;51.052;6.982;2024-02-21T11:42:35;3.97;;;1.50;;
16242;SDS011;11719;51.052;6.982;2024-02-21T11:45:03;6.50;;;1.47;;
16242;SDS011;11719;51.052;6.982;2024-02-21T11:47:30;3.50;;;1.60;;
16242;SDS011;11719;51.052;6.982;2024-02-21T11:49:55;6.13;;;1.47;;
16242;SDS011;11719;51.052;6.982;2024-02-21T11:52:21;3.27;;;1.57;;
16242;SDS011;11719;51.052;6.982;2024-02-21T11:54:52;2.47;;;1.40;;
16242;SDS011;11719;51.052;6.982;2024-02-21T11:57:20;5.50;;;1.40;;
16242;SDS011;11719;51.052;6.982;2024-02-21T11:59:46;2.23;;;1.00;;
16242;SDS011;11719;51.052;6.982;2024-02-21T12:02:14;2.33;;;0.70;;
16242;SDS011;11719;51.052;6.982;2024-02-21T12:04:40;4.40;;;1.70;;
16242;SDS011;11719;51.052;6.982;2024-02-21T12:07:07;1.90;;;0.80;;
16242;SDS011;11719;51.052;6.982;2024-02-21T12:09:34;2.00;;;1.00;;
16242;SDS011;11719;51.052;6.982;2024-02-21T12:12:04;2.97;;;1.17;;
16242;SDS011;11719;51.052;6.982;2024-02-21T12:14:31;3.53;;;1.10;;
16242;SDS011;11719;51.052;6.982;2024-02-21T12:17:00;4.97;;;1.20;;
16242;SDS011;11719;51.052;6.982;2024-02-21T12:19:30;2.07;;;0.90;;
16242;SDS011;11719;51.052;6.982;2024-02-21T12:21:59;3.17;;;0.63;;
16242;SDS011;11719;51.052;6.982;2024-02-21T12:24:28;2.67;;;1.20;;
16242;SDS011;11719;51.052;6.982;2024-02-21T12:26:54;2.67;;;1.30;;
16242;SDS011;11719;51.052;6.982;2024-02-21T12:29:24;4.10;;;1.40;;
16242;SDS011;11719;51.052;6.982;2024-02-21T12:31:51;4.77;;;1.50;;
16242;SDS011;11719;51.052;6.982;2024-02-21T12:34:17;6.20;;;1.80;;
16242;SDS011;11719;51.052;6.982;2024-02-21T12:36:46;5.50;;;1.20;;
16242;SDS011;11719;51.052;6.982;2024-02-21T12:39:12;2.40;;;1.23;;
16242;SDS011;11719;51.052;6.982;2024-02-21T12:41:39;1.83;;;0.70;;
16242;SDS011;11719;51.052;6.982;2024-02-21T12:44:06;3.17;;;1.23;;
16242;SDS011;11719;51.052;6.982;2024-02-21T12:46:38;2.67;;;1.20;;
16242;SDS011;11719;51.052;6.982;2024-02-21T12:49:10;2.17;;;0.83;;
16242;SDS011;11719;51.052;6.982;2024-02-21T12:51:36;0.70;;;0.63;;
16242;SDS011;11719;51.052;6.982;2024-02-21T12:54:03;1.27;;;0.70;;
16242;SDS011;11719;51.052;6.982;2024-02-21T12:56:28;1.10;;;0.70;;
16242;SDS011;11719;51.052;6.982;2024-02-21T12:58:56;2.27;;;1.20;;
16242;SDS011;11719;51.052;6.982;2024-02-21T13:01:22;2.40;;;1.20;;
16242;SDS011;11719;51.052;6.982;2024-02-21T13:03:52;4.93;;;0.77;;
16242;SDS011;11719;51.052;6.982;2024-02-21T13:06:20;1.63;;;1.30;;
16242;SDS011;11719;51.052;6.982;2024-02-21T13:08:50;5.27;;;1.50;;
16242;SDS011;11719;51.052;6.982;2024-02-21T13:11:19;2.53;;;0.73;;
16242;SDS011;11719;51.052;6.982;2024-02-21T13:13:46;2.20;;;1.10;;
16242;SDS011;11719;51.052;6.982;2024-02-21T13:16:13;4.20;;;1.43;;
16242;SDS011;11719;51.052;6.982;2024-02-21T13:18:39;1.90;;;0.60;;
16242;SDS011;11719;51.052;6.982;2024-02-21T13:21:12;2.33;;;1.03;;
16242;SDS011;11719;51.052;6.982;2024-02-21T13:23:38;1.60;;;1.00;;
16242;SDS011;11719;51.052;6.982;2024-02-21T13:26:09;6.00;;;1.20;;
16242;SDS011;11719;51.052;6.982;2024-02-21T13:28:39;2.00;;;1.07;;
16242;SDS011;11719;51.052;6.982;2024-02-21T13:31:09;1.13;;;0.73;;
16242;SDS011;11719;51.052;6.982;2024-02-21T13:33:35;2.47;;;1.10;;
16242;SDS011;11719;51.052;6.982;2024-02-21T13:36:01;3.63;;;1.23;;
16242;SDS011;11719;51.052;6.982;2024-02-21T13:38:28;1.90;;;1.23;;
16242;SDS011;11719;51.052;6.982;2024-02-21T13:40:54;7.03;;;1.63;;
16242;SDS011;11719;51.052;6.982;2024-02-21T13:43:22;4.60;;;1.23;;
16242;SDS011;11719;51.052;6.982;2024-02-21T13:45:58;4.07;;;1.77;;
16242;SDS011;11719;51.052;6.982;2024-02-21T13:48:27;1.87;;;1.00;;
16242;SDS011;11719;51.052;6.982;2024-02-21T13:50:54;2.17;;;1.23;;
16242;SDS011;11719;51.052;6.982;2024-02-21T13:53:23;6.47;;;1.53;;
16242;SDS011;11719;51.052;6.982;2024-02-21T13:55:52;2.40;;;0.83;;
16242;SDS011;11719;51.052;6.982;2024-02-21T13:58:18;3.27;;;1.20;;
16242;SDS011;11719;51.052;6.982;2024-02-21T14:00:45;3.67;;;1.80;;
16242;SDS011;11719;51.052;6.982;2024-02-21T14:03:10;5.07;;;1.47;;
16242;SDS011;11719;51.052;6.982;2024-02-21T14:05:37;2.83;;;1.33;;
16242;SDS011;11719;51.052;6.982;2024-02-21T14:08:05;0.73;;;0.73;;
16242;SDS011;11719;51.052;6.982;2024-02-21T14:10:34;2.77;;;0.87;;
16242;SDS011;11719;51.052;6.982;2024-02-21T14:13:02;2.00;;;1.20;;
16242;SDS011;11719;51.052;6.982;2024-02-21T14:15:28;3.57;;;1.00;;
16242;SDS011;11719;51.052;6.982;2024-02-21T14:17:55;5.50;;;1.50;;
16242;SDS011;11719;51.052;6.982;2024-02-21T14:20:21;3.73;;;1.47;;
16242;SDS011;11719;51.052;6.982;2024-02-21T14:22:47;3.43;;;1.40;;
16242;SDS011;11719;51.052;6.982;2024-02-21T14:25:13;4.00;;;1.37;;
16242;SDS011;11719;51.052;6.982;2024-02-21T14:27:40;5.07;;;0.70;;
16242;SDS011;11719;51.052;6.982;2024-02-21T14:30:06;6.80;;;1.67;;
16242;SDS011;11719;51.052;6.982;2024-02-21T14:32:35;3.67;;;1.27;;
16242;SDS011;11719;51.052;6.982;2024-02-21T14:35:02;3.23;;;1.50;;
16242;SDS011;11719;51.052;6.982;2024-02-21T14:37:28;1.77;;;1.40;;
16242;SDS011;11719;51.052;6.982;2024-02-21T14:39:54;3.87;;;1.07;;
16242;SDS011;11719;51.052;6.982;2024-02-21T14:42:23;5.93;;;1.47;;
16242;SDS011;11719;51.052;6.982;2024-02-21T14:44:48;2.03;;;1.07;;
16242;SDS011;11719;51.052;6.982;2024-02-21T14:47:14;1.17;;;0.90;;
16242;SDS011;11719;51.052;6.982;2024-02-21T14:49:40;2.53;;;1.07;;
16242;SDS011;11719;51.052;6.982;2024-02-21T14:52:06;2.73;;;1.03;;
16242;SDS011;11719;51.052;6.982;2024-02-21T14:54:34;1.30;;;1.00;;